Time;durP1;ratioP1;P1;durP2;ratioP2;P2;SDS_P1;SDS_P2;PMS_P1;PMS_P2;Temp;Humidity;BMP_temperature;BMP_pressure;BME280_temperature;BME280_humidity;BME280_pressure;Samples;Min_cycle;Max_cycle;Signal;HPM_P1;HPM_P2
2021/04/21 00:01:16;;;;;;;113.25;60.47;;;10.80;76.40;;;;;;4900036;29;20165;-82
2021/04/21 00:03:44;;;;;;;120.22;59.47;;;10.70;76.30;;;;;;4899132;29;20470;-81
2021/04/21 00:06:12;;;;;;;70.45;43.47;;;10.80;76.50;;;;;;4900040;29;20435;-82
2021/04/21 00:08:37;;;;;;;62.78;39.08;;;10.70;76.60;;;;;;4899834;29;20506;-82
2021/04/21 00:11:04;;;;;;;58.58;38.00;;;10.70;76.50;;;;;;4903723;29;20039;-82
2021/04/21 00:13:31;;;;;;;55.63;37.70;;;10.70;76.60;;;;;;4904781;29;20033;-82
2021/04/21 00:15:56;;;;;;;49.40;34.88;;;10.70;76.60;;;;;;4898277;29;20077;-82
2021/04/21 00:18:23;;;;;;;47.67;34.25;;;10.60;76.70;;;;;;4899781;29;20043;-81
2021/04/21 00:21:00;;;;;;;50.50;35.28;;;10.50;77.70;;;;;;4899755;29;20068;-82
2021/04/21 00:23:27;;;;;;;46.30;32.92;;;10.50;77.50;;;;;;4899690;29;20047;-82
2021/04/21 00:25:55;;;;;;;52.35;35.40;;;10.50;77.50;;;;;;4899601;29;20587;-82
2021/04/21 00:28:26;;;;;;;50.75;36.08;;;10.40;77.60;;;;;;4899567;29;20050;-81
2021/04/21 00:30:54;;;;;;;52.03;36.85;;;10.50;77.90;;;;;;4899563;29;20065;-82
2021/04/21 00:33:22;;;;;;;49.45;33.60;;;10.40;78.00;;;;;;4899696;29;20024;-82
2021/04/21 00:35:50;;;;;;;52.63;35.22;;;10.40;78.00;;;;;;4899369;29;20120;-82
2021/04/21 00:38:19;;;;;;;49.90;35.67;;;10.40;78.00;;;;;;4898010;29;20096;-82
2021/04/21 00:40:44;;;;;;;48.85;35.03;;;10.40;77.90;;;;;;4899286;29;20037;-82
2021/04/21 00:43:24;;;;;;;51.92;37.63;;;10.40;77.80;;;;;;4898984;29;20043;-81
2021/04/21 00:46:12;;;;;;;48.08;34.88;;;10.40;78.00;;;;;;4898017;29;20036;-82
2021/04/21 00:48:49;;;;;;;49.65;32.95;;;10.40;78.20;;;;;;4893427;29;20071;-81
2021/04/21 00:51:22;;;;;;;48.03;34.42;;;10.30;78.40;;;;;;4897731;29;20545;-81
2021/04/21 00:53:53;;;;;;;47.03;36.10;;;10.30;78.50;;;;;;4899108;29;20036;-82
2021/04/21 00:56:41;;;;;;;49.25;37.53;;;10.20;78.50;;;;;;4899236;29;20017;-82
2021/04/21 00:59:32;;;;;;;46.63;35.85;;;10.20;78.70;;;;;;4898869;29;20108;-82
2021/04/21 01:01:59;;;;;;;48.97;35.38;;;10.20;79.00;;;;;;4904201;29;20024;-81
2021/04/21 01:04:25;;;;;;;47.03;36.67;;;10.20;79.10;;;;;;4917962;29;20036;-81
2021/04/21 01:06:53;;;;;;;59.10;40.40;;;10.20;79.20;;;;;;4917716;29;20032;-81
2021/04/21 01:09:21;;;;;;;60.75;41.50;;;10.20;79.30;;;;;;4907792;29;20043;-82
2021/04/21 01:11:51;;;;;;;56.80;38.65;;;10.10;79.30;;;;;;4898495;29;20036;-82
2021/04/21 01:14:25;;;;;;;49.88;37.25;;;10.10;79.50;;;;;;4896837;29;20081;-82
2021/04/21 01:16:59;;;;;;;49.08;36.55;;;10.10;79.60;;;;;;4902789;29;20503;-82
2021/04/21 01:19:36;;;;;;;50.28;37.53;;;10.10;79.70;;;;;;4904370;29;20037;-82
2021/04/21 01:22:13;;;;;;;52.08;36.60;;;10.10;79.80;;;;;;4898324;29;20040;-81
2021/04/21 01:24:44;;;;;;;53.53;36.95;;;10.10;80.00;;;;;;4901551;29;20043;-82
2021/04/21 01:27:36;;;;;;;60.83;41.15;;;10.10;80.00;;;;;;4898483;29;20063;-82
2021/04/21 01:30:02;;;;;;;63.95;41.90;;;10.10;80.20;;;;;;4888924;29;20047;-82
2021/04/21 01:32:32;;;;;;;63.80;43.55;;;10.00;80.00;;;;;;4910602;29;20025;-82
2021/04/21 01:34:58;;;;;;;56.42;40.55;;;10.00;80.30;;;;;;4906083;29;20025;-82
2021/04/21 01:37:31;;;;;;;55.67;39.72;;;10.00;80.40;;;;;;4911671;29;20068;-81
2021/04/21 01:40:14;;;;;;;56.40;42.85;;;10.00;80.50;;;;;;4917349;29;20024;-82
2021/04/21 01:42:43;;;;;;;57.03;40.92;;;10.00;80.50;;;;;;4910551;29;20037;-82
2021/04/21 01:45:12;;;;;;;50.33;38.10;;;10.00;80.60;;;;;;4910377;29;20020;-82
2021/04/21 01:47:39;;;;;;;;;;;9.90;80.60;;;;;;4917702;29;20421;-82
2021/04/21 01:50:06;;;;;;;49.60;35.75;;;9.90;80.40;;;;;;4917117;29;20016;-82
2021/04/21 01:52:43;;;;;;;58.65;38.72;;;9.90;80.70;;;;;;4917181;29;20030;-82
2021/04/21 01:55:37;;;;;;;56.97;36.53;;;9.90;80.90;;;;;;4904050;29;20041;-82
2021/04/21 01:58:30;;;;;;;49.45;36.63;;;9.90;81.00;;;;;;4897069;29;20025;-82
2021/04/21 02:01:15;;;;;;;55.65;37.50;;;9.80;80.80;;;;;;4897233;29;20451;-82
2021/04/21 02:03:46;;;;;;;52.70;36.97;;;9.80;80.80;;;;;;4898408;29;20443;-82
2021/04/21 02:06:39;;;;;;;59.28;38.33;;;9.80;80.70;;;;;;4898097;29;20083;-82
2021/04/21 02:09:28;;;;;;;59.20;38.33;;;9.80;80.80;;;;;;4896853;29;20127;-82
2021/04/21 02:12:21;;;;;;;56.10;37.00;;;9.80;80.80;;;;;;4891408;29;20049;-81
2021/04/21 02:15:02;;;;;;;57.22;39.35;;;9.80;80.90;;;;;;4900411;29;20067;-82
2021/04/21 02:17:59;;;;;;;59.75;39.53;;;9.80;81.10;;;;;;4901559;29;20053;-82
2021/04/21 02:20:40;;;;;;;48.13;35.15;;;9.80;81.10;;;;;;4891226;29;20048;-82
2021/04/21 02:23:26;;;;;;;53.42;38.15;;;9.70;81.10;;;;;;4897924;29;20401;-82
2021/04/21 02:26:09;;;;;;;55.38;40.15;;;9.70;81.10;;;;;;4898027;29;20033;-82
2021/04/21 02:28:53;;;;;;;59.30;37.58;;;9.70;81.10;;;;;;4896674;29;20559;-82
2021/04/21 02:31:40;;;;;;;55.28;41.28;;;9.80;81.20;;;;;;4897655;29;20507;-82
2021/04/21 02:34:15;;;;;;;58.88;41.88;;;9.80;81.50;;;;;;4897889;29;20515;-81
2021/04/21 02:36:52;;;;;;;63.45;41.30;;;9.80;81.30;;;;;;4896703;29;20041;-82
2021/04/21 02:39:33;;;;;;;62.38;41.13;;;9.80;81.60;;;;;;4879111;29;20026;-82
2021/04/21 02:42:09;;;;;;;54.17;39.13;;;9.80;81.80;;;;;;4879196;29;20029;-81
2021/04/21 02:45:04;;;;;;;55.33;38.08;;;9.70;81.90;;;;;;4879043;29;20448;-81
2021/04/21 02:47:42;;;;;;;54.58;38.85;;;9.70;82.00;;;;;;4879278;29;20025;-81
2021/04/21 02:50:30;;;;;;;60.95;40.22;;;9.70;82.00;;;;;;4900098;29;20542;-82
2021/04/21 02:53:28;;;;;;;56.42;38.80;;;9.80;82.10;;;;;;4916715;29;20055;-82
2021/04/21 02:56:11;;;;;;;57.55;40.88;;;9.70;82.20;;;;;;4916452;29;20062;-82
2021/04/21 02:58:52;;;;;;;52.70;39.25;;;9.80;82.10;;;;;;4914896;29;20116;-82
2021/04/21 03:01:39;;;;;;;57.33;39.33;;;9.80;82.30;;;;;;4897380;29;20031;-82
2021/04/21 03:04:19;;;;;;;58.55;39.30;;;9.90;82.20;;;;;;4897529;29;20431;-82
2021/04/21 03:06:50;;;;;;;57.72;39.45;;;9.80;82.20;;;;;;4900503;29;20478;-82
2021/04/21 03:09:21;;;;;;;57.15;39.72;;;9.90;82.10;;;;;;4901163;29;20031;-82
2021/04/21 03:11:48;;;;;;;63.53;41.38;;;9.90;82.10;;;;;;4900903;29;20037;-82
2021/04/21 03:14:19;;;;;;;56.70;39.65;;;9.90;82.20;;;;;;4900717;29;20025;-82
2021/04/21 03:17:06;;;;;;;54.40;38.92;;;9.90;82.30;;;;;;4900788;29;20091;-82
2021/04/21 03:20:11;;;;;;;57.03;37.38;;;9.90;82.50;;;;;;4900684;29;20092;-81
2021/04/21 03:22:38;;;;;;;60.72;41.33;;;9.90;82.60;;;;;;4881018;29;20446;-82
2021/04/21 03:25:17;;;;;;;62.20;42.03;;;9.90;82.40;;;;;;4900742;29;20084;-82
2021/04/21 03:27:47;;;;;;;64.97;41.17;;;9.90;82.40;;;;;;4900519;29;20043;-82
2021/04/21 03:30:17;;;;;;;57.35;38.78;;;9.90;82.30;;;;;;4902992;29;20111;-82
2021/04/21 03:32:53;;;;;;;53.85;38.28;;;9.90;82.40;;;;;;4919511;29;20474;-82
2021/04/21 03:35:23;;;;;;;63.45;39.88;;;9.90;82.30;;;;;;4919369;29;20386;-82
2021/04/21 03:37:54;;;;;;;56.17;37.83;;;9.90;82.20;;;;;;4919506;29;20031;-82
2021/04/21 03:40:20;;;;;;;57.55;40.63;;;9.90;82.50;;;;;;4919257;29;20028;-82
2021/04/21 03:42:46;;;;;;;52.33;38.25;;;9.90;82.30;;;;;;4919516;29;20107;-81
2021/04/21 03:45:13;;;;;;;51.88;36.95;;;9.90;82.40;;;;;;4919228;29;20035;-82
2021/04/21 03:47:40;;;;;;;55.67;39.80;;;9.80;82.50;;;;;;4913709;29;20065;-81
2021/04/21 03:50:08;;;;;;;55.40;37.72;;;9.80;82.50;;;;;;4899117;29;20474;-82
2021/04/21 03:52:38;;;;;;;59.92;40.72;;;9.80;82.50;;;;;;4899125;29;20047;-82
2021/04/21 03:55:05;;;;;;;54.83;37.75;;;9.80;82.60;;;;;;4900694;29;20043;-81
2021/04/21 03:57:33;;;;;;;58.40;41.47;;;9.80;82.90;;;;;;4899181;29;20033;-81
2021/04/21 04:00:03;;;;;;;60.97;39.63;;;9.80;82.50;;;;;;4898880;29;20395;-81
2021/04/21 04:02:31;;;;;;;54.53;38.75;;;9.70;82.50;;;;;;4918068;29;20095;-82
2021/04/21 04:05:02;;;;;;;56.20;39.97;;;9.70;82.50;;;;;;4918809;29;20038;-81
2021/04/21 04:07:32;;;;;;;56.65;38.28;;;9.70;82.50;;;;;;4918821;29;20047;-82
2021/04/21 04:10:03;;;;;;;55.08;38.47;;;9.70;82.60;;;;;;4907455;29;20398;-82
2021/04/21 04:12:32;;;;;;;58.00;39.72;;;9.70;82.60;;;;;;4899368;29;20390;-82
2021/04/21 04:15:01;;;;;;;56.35;38.20;;;9.70;82.60;;;;;;4899450;29;20530;-82
2021/04/21 04:17:29;;;;;;;61.28;39.25;;;9.70;82.60;;;;;;4905053;29;20047;-81
2021/04/21 04:19:59;;;;;;;51.60;38.05;;;9.70;82.50;;;;;;4908967;29;20398;-82
2021/04/21 04:22:30;;;;;;;59.45;37.67;;;9.70;82.60;;;;;;4906697;29;20029;-82
2021/04/21 04:24:57;;;;;;;57.90;38.63;;;9.70;82.80;;;;;;4899531;29;20450;-82
2021/04/21 04:27:28;;;;;;;55.95;37.35;;;9.70;82.90;;;;;;4903134;29;20481;-82
2021/04/21 04:29:55;;;;;;;55.65;37.90;;;9.60;82.90;;;;;;4917299;29;20039;-82
2021/04/21 04:32:23;;;;;;;64.30;39.08;;;9.70;82.90;;;;;;4911471;29;20032;-82
2021/04/21 04:34:55;;;;;;;59.97;38.75;;;9.70;82.90;;;;;;4898061;29;20040;-81
2021/04/21 04:37:22;;;;;;;57.95;37.15;;;9.60;83.00;;;;;;4899416;29;20021;-82
2021/04/21 04:39:48;;;;;;;63.53;38.92;;;9.70;83.00;;;;;;4899360;29;20386;-81
2021/04/21 04:42:14;;;;;;;57.08;38.15;;;9.60;82.90;;;;;;4900386;29;20100;-81
2021/04/21 04:44:43;;;;;;;58.05;38.13;;;9.70;83.00;;;;;;4897813;29;20367;-82
2021/04/21 04:47:12;;;;;;;56.92;36.40;;;9.70;83.00;;;;;;4898930;29;20036;-82
2021/04/21 04:49:48;;;;;;;60.10;38.40;;;9.70;83.10;;;;;;4899302;29;20024;-82
2021/04/21 04:52:18;;;;;;;59.88;37.17;;;9.60;83.10;;;;;;4897802;29;20043;-82
2021/04/21 04:54:44;;;;;;;54.22;35.40;;;9.70;83.20;;;;;;4899516;29;20041;-81
2021/04/21 04:57:11;;;;;;;57.67;36.88;;;9.60;83.10;;;;;;4899003;29;20025;-82
2021/04/21 04:59:37;;;;;;;55.45;37.00;;;9.70;83.20;;;;;;4897685;29;20120;-82
2021/04/21 05:02:06;;;;;;;58.97;37.50;;;9.60;83.10;;;;;;4898804;29;20028;-82
2021/04/21 05:04:35;;;;;;;;;;;9.60;83.10;;;;;;4899690;29;20028;-82
2021/04/21 05:07:05;;;;;;;56.35;35.35;;;9.60;82.90;;;;;;4898908;29;19908;-82
2021/04/21 05:09:40;;;;;;;57.17;34.60;;;9.60;83.20;;;;;;4898857;29;20040;-82
2021/04/21 05:12:11;;;;;;;53.03;34.95;;;9.60;83.20;;;;;;4902003;29;20036;-81
2021/04/21 05:14:39;;;;;;;55.00;36.50;;;9.60;83.10;;;;;;4917623;29;20031;-81
2021/04/21 05:17:32;;;;;;;52.40;35.50;;;9.60;83.10;;;;;;4903158;29;20446;-81
2021/04/21 05:20:16;;;;;;;54.50;36.17;;;9.70;83.20;;;;;;4907568;29;20035;-81
2021/04/21 05:23:00;;;;;;;51.97;34.28;;;9.70;83.20;;;;;;4898522;29;20040;-81
2021/04/21 05:26:01;;;;;;;52.60;35.40;;;9.70;82.90;;;;;;4898616;29;20039;-81
2021/04/21 05:28:56;;;;;;;48.92;33.92;;;9.70;82.90;;;;;;4896371;29;20040;-81
2021/04/21 05:31:30;;;;;;;50.72;32.50;;;9.70;82.90;;;;;;4912096;29;20442;-82
2021/04/21 05:34:04;;;;;;;57.70;35.58;;;9.70;82.80;;;;;;4917307;29;20020;-81
2021/04/21 05:37:03;;;;;;;50.88;33.45;;;9.80;82.90;;;;;;4917312;29;20024;-82
2021/04/21 05:40:23;;;;;;;53.50;34.53;;;9.70;82.80;;;;;;4899434;29;20180;-82
2021/04/21 05:43:25;;;;;;;54.28;34.85;;;9.80;83.00;;;;;;4804248;29;20089;-82
2021/04/21 05:46:29;;;;;;;49.10;32.20;;;9.80;82.90;;;;;;4879720;29;20048;-82
2021/04/21 05:49:19;;;;;;;49.75;33.08;;;9.90;83.00;;;;;;4888635;29;20112;-82
2021/04/21 05:51:58;;;;;;;52.00;33.53;;;10.00;82.80;;;;;;4909896;29;20036;-82
2021/04/21 05:54:49;;;;;;;56.47;33.88;;;10.10;82.60;;;;;;4907998;29;20406;-82
2021/04/21 05:57:45;;;;;;;59.22;35.70;;;10.20;82.40;;;;;;4897962;29;20040;-82
2021/04/21 06:00:13;;;;;;;53.20;32.83;;;10.20;82.40;;;;;;4897804;29;20115;-81
2021/04/21 06:02:40;;;;;;;51.55;33.55;;;10.30;82.40;;;;;;4913882;29;20438;-81
2021/04/21 06:05:13;;;;;;;50.17;33.25;;;10.30;82.10;;;;;;4916884;29;20036;-82
2021/04/21 06:07:43;;;;;;;46.67;32.03;;;10.50;81.70;;;;;;4915695;29;20111;-82
2021/04/21 06:10:25;;;;;;;54.97;33.40;;;10.50;81.10;;;;;;4916868;29;20367;-81
2021/04/21 06:12:58;;;;;;;52.58;31.83;;;10.70;81.40;;;;;;4916993;29;20053;-82
2021/04/21 06:15:28;;;;;;;48.20;31.83;;;10.70;80.90;;;;;;4916752;29;20020;-81
2021/04/21 06:17:57;;;;;;;45.53;31.58;;;10.90;80.50;;;;;;4908829;29;20132;-81
2021/04/21 06:20:39;;;;;;;51.47;32.30;;;11.10;80.20;;;;;;4897866;29;20095;-81
2021/04/21 06:23:07;;;;;;;46.80;29.63;;;11.20;79.40;;;;;;4897980;29;20054;-82
2021/04/21 06:25:34;;;;;;;41.75;26.02;;;11.40;78.60;;;;;;4908389;29;20374;-82
2021/04/21 06:28:11;;;;;;;39.95;25.40;;;11.50;78.20;;;;;;4912890;29;20025;-81
2021/04/21 06:30:37;;;;;;;40.80;25.15;;;11.60;77.00;;;;;;4910977;29;20036;-83
2021/04/21 06:33:07;;;;;;;41.63;24.27;;;11.70;75.80;;;;;;4905025;29;20036;-82
2021/04/21 06:35:33;;;;;;;34.95;24.25;;;11.90;75.70;;;;;;4898016;29;20047;-82
2021/04/21 06:38:00;;;;;;;34.90;23.45;;;12.00;74.90;;;;;;4898108;29;20067;-82
2021/04/21 06:40:30;;;;;;;38.65;23.13;;;12.20;74.40;;;;;;4898172;29;20032;-82
2021/04/21 06:42:58;;;;;;;34.78;22.13;;;12.30;73.70;;;;;;4901938;29;20518;-82
2021/04/21 06:45:32;;;;;;;38.20;22.30;;;12.50;73.00;;;;;;4902508;29;20032;-82
2021/04/21 06:48:00;;;;;;;29.52;22.08;;;12.70;72.20;;;;;;4902212;29;20033;-81
2021/04/21 06:50:31;;;;;;;32.75;22.33;;;12.80;71.70;;;;;;4902008;29;20033;-82
2021/04/21 06:53:02;;;;;;;37.42;22.50;;;13.00;70.70;;;;;;4900895;29;20421;-84
2021/04/21 06:55:29;;;;;;;32.80;21.40;;;13.00;69.80;;;;;;4911491;29;20013;-81
2021/04/21 06:57:55;;;;;;;28.38;21.25;;;13.20;69.90;;;;;;4905841;29;20055;-82
2021/04/21 07:00:26;;;;;;;29.55;19.23;;;13.30;68.30;;;;;;4902783;29;20036;-82
2021/04/21 07:02:58;;;;;;;29.70;18.75;;;13.40;68.10;;;;;;4902000;29;20040;-82
2021/04/21 07:05:40;;;;;;;32.00;19.17;;;13.50;67.50;;;;;;4888717;29;20025;-83
2021/04/21 07:08:11;;;;;;;30.75;19.55;;;13.60;66.20;;;;;;4907607;29;20025;-83
2021/04/21 07:10:50;;;;;;;27.83;18.73;;;13.70;65.60;;;;;;4902364;29;20363;-85
2021/04/21 07:13:20;;;;;;;25.55;17.27;;;13.70;65.80;;;;;;4889625;29;20024;-82
2021/04/21 07:15:46;;;;;;;24.75;16.88;;;13.80;65.10;;;;;;4905661;29;20481;-82
2021/04/21 07:18:18;;;;;;;27.83;15.60;;;13.90;64.30;;;;;;4908876;29;20096;-83
2021/04/21 07:20:44;;;;;;;22.08;15.35;;;14.00;62.50;;;;;;4908496;29;20031;-83
2021/04/21 07:23:11;;;;;;;21.90;14.93;;;14.00;61.80;;;;;;4916474;29;20032;-83
2021/04/21 07:25:38;;;;;;;25.25;16.00;;;14.10;61.50;;;;;;4918498;29;20047;-83
2021/04/21 07:28:05;;;;;;;25.20;15.93;;;14.20;61.70;;;;;;4919981;29;20035;-83
2021/04/21 07:30:34;;;;;;;24.88;16.98;;;14.40;61.90;;;;;;4914477;29;20088;-82
2021/04/21 07:33:00;;;;;;;26.83;16.35;;;14.50;61.30;;;;;;4900692;29;20033;-83
2021/04/21 07:35:29;;;;;;;23.45;16.70;;;14.60;60.70;;;;;;4907721;29;20029;-85
2021/04/21 07:37:56;;;;;;;25.80;17.85;;;14.70;61.30;;;;;;4903214;29;20040;-84
2021/04/21 07:40:27;;;;;;;22.80;16.75;;;14.80;60.50;;;;;;4910712;29;20032;-82
2021/04/21 07:43:11;;;;;;;25.02;17.10;;;14.90;60.70;;;;;;4904250;29;20557;-83
2021/04/21 07:45:50;;;;;;;25.10;17.23;;;15.00;61.10;;;;;;4900438;29;20052;-83
2021/04/21 07:48:34;;;;;;;22.50;14.73;;;15.00;60.80;;;;;;4900674;29;20079;-82
2021/04/21 07:51:24;;;;;;;22.40;15.35;;;14.90;58.40;;;;;;4909720;29;20426;-82
2021/04/21 07:53:50;;;;;;;21.83;14.70;;;14.70;58.20;;;;;;4906593;29;20368;-83
2021/04/21 07:56:16;;;;;;;27.48;16.63;;;14.50;59.20;;;;;;4905263;29;20040;-83
2021/04/21 07:58:42;;;;;;;34.67;17.55;;;14.40;59.50;;;;;;4919369;29;20024;-83
2021/04/21 08:01:09;;;;;;;29.20;17.20;;;14.30;61.00;;;;;;4913000;29;20050;-83
2021/04/21 08:03:35;;;;;;;31.17;18.10;;;14.30;61.70;;;;;;4901852;29;20107;-83
2021/04/21 08:06:02;;;;;;;30.83;17.52;;;14.20;61.30;;;;;;4911048;29;20016;-83
2021/04/21 08:08:29;;;;;;;32.47;17.98;;;14.20;61.40;;;;;;4899848;29;20118;-83
2021/04/21 08:10:56;;;;;;;28.05;16.95;;;14.30;60.20;;;;;;4899982;29;20033;-83
2021/04/21 08:13:44;;;;;;;25.98;16.70;;;14.30;60.50;;;;;;4899419;29;20032;-83
2021/04/21 08:16:22;;;;;;;32.58;15.75;;;14.30;60.00;;;;;;4886993;29;20040;-74
2021/04/21 08:18:48;;;;;;;31.30;17.73;;;14.30;59.70;;;;;;4918321;29;20111;-74
2021/04/21 08:21:36;;;;;;;25.92;16.92;;;14.20;59.20;;;;;;4906716;29;20492;-74
2021/04/21 08:24:06;;;;;;;28.75;16.13;;;14.20;60.20;;;;;;4903092;29;20430;-72
2021/04/21 08:26:32;;;;;;;24.60;17.08;;;14.20;60.00;;;;;;4894039;29;20370;-72
2021/04/21 08:29:00;;;;;;;25.80;17.27;;;14.20;60.40;;;;;;4917742;29;20051;-72
2021/04/21 08:31:27;;;;;;;25.52;17.77;;;14.20;60.50;;;;;;4905313;29;20065;-72
2021/04/21 08:33:53;;;;;;;23.77;17.58;;;14.20;60.60;;;;;;4901871;29;20043;-74
2021/04/21 08:36:19;;;;;;;29.02;17.75;;;14.20;61.60;;;;;;4913664;29;20036;-74
2021/04/21 08:38:48;;;;;;;33.50;18.52;;;14.20;62.30;;;;;;4906277;29;20029;-74
2021/04/21 08:41:17;;;;;;;27.92;18.35;;;14.40;62.70;;;;;;4898716;29;20529;-72
2021/04/21 08:43:45;;;;;;;;;;;14.40;61.60;;;;;;4910229;29;20422;-73
2021/04/21 08:46:13;;;;;;;28.45;17.73;;;14.40;61.00;;;;;;4909137;29;19919;-74
2021/04/21 08:48:40;;;;;;;25.67;17.98;;;14.40;61.60;;;;;;4902158;29;20024;-74
2021/04/21 08:51:07;;;;;;;22.80;16.48;;;14.50;60.70;;;;;;4898735;29;20389;-74
2021/04/21 08:53:36;;;;;;;24.38;16.08;;;14.60;60.90;;;;;;4916718;29;20088;-75
2021/04/21 08:56:04;;;;;;;21.63;16.13;;;14.60;59.70;;;;;;4908497;29;20083;-72
2021/04/21 08:58:32;;;;;;;25.90;16.98;;;14.80;59.90;;;;;;4897747;29;20477;-78
2021/04/21 09:00:59;;;;;;;26.73;18.00;;;15.00;60.20;;;;;;4900152;29;20028;-78
2021/04/21 09:03:26;;;;;;;24.20;16.95;;;15.30;59.80;;;;;;4897361;29;20032;-78
2021/04/21 09:05:51;;;;;;;27.13;18.35;;;15.60;59.50;;;;;;4898971;29;20043;-78
2021/04/21 09:08:20;;;;;;;28.50;18.92;;;15.90;58.10;;;;;;4917286;29;20115;-77
2021/04/21 09:10:46;;;;;;;27.60;18.42;;;15.90;57.80;;;;;;4903406;29;20119;-80
2021/04/21 09:13:13;;;;;;;32.00;19.10;;;16.00;58.70;;;;;;4905971;29;20059;-83
2021/04/21 09:15:39;;;;;;;27.92;17.38;;;16.30;58.30;;;;;;4912530;29;20029;-83
2021/04/21 09:18:04;;;;;;;35.90;18.27;;;16.50;57.10;;;;;;4916571;29;20055;-83
2021/04/21 09:20:30;;;;;;;25.02;18.70;;;16.70;55.90;;;;;;4917702;29;20115;-84
2021/04/21 09:23:04;;;;;;;28.17;18.35;;;16.90;56.50;;;;;;4917472;29;20032;-83
2021/04/21 09:25:35;;;;;;;25.27;17.27;;;17.00;56.00;;;;;;4917622;29;20051;-84
2021/04/21 09:28:01;;;;;;;26.88;17.13;;;17.20;54.60;;;;;;4917690;29;20032;-83
2021/04/21 09:30:27;;;;;;;26.48;18.05;;;17.40;54.40;;;;;;4917687;29;20032;-84
2021/04/21 09:32:55;;;;;;;23.75;16.73;;;17.60;53.80;;;;;;4900099;29;20053;-84
2021/04/21 09:35:40;;;;;;;22.65;16.52;;;17.80;53.40;;;;;;4878878;29;20025;-85
2021/04/21 09:38:24;;;;;;;25.73;17.27;;;17.90;53.20;;;;;;4878633;29;20029;-85
2021/04/21 09:40:53;;;;;;;27.95;18.50;;;18.00;52.00;;;;;;4879833;29;20104;-84
2021/04/21 09:43:22;;;;;;;;;;;18.10;52.30;;;;;;4879035;29;20025;-85
2021/04/21 09:45:57;;;;;;;24.98;15.05;;;18.10;51.90;;;;;;4879797;29;19914;-84
2021/04/21 09:48:32;;;;;;;23.45;13.38;;;18.10;51.00;;;;;;4915433;29;20032;-84
2021/04/21 09:51:02;;;;;;;21.13;12.55;;;18.10;50.50;;;;;;4916022;29;20036;-85
2021/04/21 09:53:39;;;;;;;18.85;12.90;;;18.10;49.20;;;;;;4899116;29;20039;-85
2021/04/21 09:56:12;;;;;;;22.80;13.18;;;18.20;48.10;;;;;;4898394;29;20049;-85
2021/04/21 09:58:41;;;;;;;19.77;13.25;;;18.20;47.80;;;;;;4898341;29;20522;-84
2021/04/21 10:01:27;;;;;;;19.83;13.82;;;18.20;48.70;;;;;;4897136;29;20032;-85
2021/04/21 10:04:14;;;;;;;22.02;13.50;;;18.40;48.80;;;;;;4878465;29;20036;-84
2021/04/21 10:07:02;;;;;;;19.20;14.55;;;18.50;48.90;;;;;;4879589;29;20029;-85
2021/04/21 10:09:35;;;;;;;27.08;15.05;;;18.60;47.80;;;;;;4898353;29;20036;-85
2021/04/21 10:12:21;;;;;;;20.95;15.50;;;18.70;47.50;;;;;;4915923;29;20044;-85
2021/04/21 10:15:02;;;;;;;22.85;14.77;;;18.80;46.80;;;;;;4894145;29;20033;-84
2021/04/21 10:17:34;;;;;;;23.63;15.23;;;18.80;47.40;;;;;;4908297;29;20056;-84
2021/04/21 10:20:00;;;;;;;22.75;14.98;;;18.80;47.70;;;;;;4921121;29;20484;-85
2021/04/21 10:22:26;;;;;;;19.75;14.65;;;18.90;47.00;;;;;;4918755;29;20115;-85
2021/04/21 10:24:53;;;;;;;25.75;15.57;;;19.00;46.20;;;;;;4901968;29;20036;-84
2021/04/21 10:27:20;;;;;;;21.58;15.00;;;19.00;46.10;;;;;;4905794;29;20059;-85
2021/04/21 10:29:46;;;;;;;20.25;15.52;;;19.00;46.60;;;;;;4921049;29;20122;-86
2021/04/21 10:32:15;;;;;;;23.98;16.52;;;19.10;46.20;;;;;;4916262;29;20036;-86
2021/04/21 10:34:44;;;;;;;24.45;16.25;;;19.20;45.40;;;;;;4901661;29;20037;-78
2021/04/21 10:37:11;;;;;;;22.75;16.02;;;19.10;46.30;;;;;;4901548;29;20056;-75
2021/04/21 10:39:39;;;;;;;22.88;15.27;;;19.20;46.10;;;;;;4906095;29;20120;-75
2021/04/21 10:42:15;;;;;;;23.85;15.93;;;19.10;46.20;;;;;;4902132;29;20116;-75
2021/04/21 10:44:43;;;;;;;24.30;16.83;;;19.30;45.60;;;;;;4902959;29;20037;-75
2021/04/21 10:47:29;;;;;;;22.35;16.08;;;19.30;46.00;;;;;;4918758;29;20039;-76
2021/04/21 10:50:05;;;;;;;22.33;15.48;;;19.30;45.30;;;;;;4903349;29;20492;-76
2021/04/21 10:52:30;;;;;;;27.13;16.67;;;19.40;46.30;;;;;;4908129;29;20418;-75
2021/04/21 10:55:02;;;;;;;22.65;17.48;;;19.40;46.50;;;;;;4903296;29;20040;-75
2021/04/21 10:57:35;;;;;;;26.05;16.63;;;19.60;45.50;;;;;;4910098;29;20549;-75
2021/04/21 11:00:16;;;;;;;26.05;19.02;;;19.50;45.30;;;;;;4903535;29;20393;-74
2021/04/21 11:05:09;;;;;;;27.67;17.88;;;19.50;44.90;;;;;;4900544;29;20056;-75
2021/04/21 11:07:35;;;;;;;24.77;17.48;;;19.50;45.60;;;;;;4901288;29;20025;-75
2021/04/21 11:10:01;;;;;;;26.27;17.65;;;19.60;45.70;;;;;;4903078;29;20055;-77
2021/04/21 11:12:49;;;;;;;25.77;18.08;;;19.70;45.90;;;;;;4904392;29;20088;-76
2021/04/21 11:15:33;;;;;;;21.67;16.85;;;19.70;46.10;;;;;;4881997;29;20035;-76
2021/04/21 11:18:07;;;;;;;22.75;17.15;;;19.90;47.00;;;;;;4899194;29;20049;-76
2021/04/21 11:20:45;;;;;;;22.75;15.82;;;20.10;46.70;;;;;;4899428;29;20039;-76
2021/04/21 11:23:45;;;;;;;22.98;17.55;;;20.20;45.10;;;;;;4906032;29;20088;-76
2021/04/21 11:26:26;;;;;;;27.05;16.38;;;19.90;44.20;;;;;;4897054;29;20032;-76
2021/04/21 11:28:58;;;;;;;20.58;14.93;;;19.70;46.00;;;;;;4904732;29;20451;-76
2021/04/21 11:31:39;;;;;;;18.20;14.90;;;19.80;46.30;;;;;;4900239;29;20081;-76
2021/04/21 11:34:24;;;;;;;18.92;12.75;;;20.00;45.10;;;;;;4899459;29;20141;-76
2021/04/21 11:36:52;;;;;;;20.88;14.10;;;20.20;44.00;;;;;;4898904;29;20028;-76
2021/04/21 11:39:40;;;;;;;21.52;13.68;;;20.30;43.90;;;;;;4889873;29;20012;-76
2021/04/21 11:42:22;;;;;;;22.00;13.43;;;20.50;44.00;;;;;;4898943;29;20036;-76
2021/04/21 11:44:52;;;;;;;19.05;13.20;;;20.60;43.00;;;;;;4904541;29;20062;-76
2021/04/21 11:47:41;;;;;;;22.50;13.85;;;20.50;43.40;;;;;;4909855;29;20032;-76
2021/04/21 11:50:22;;;;;;;21.65;13.90;;;20.30;43.50;;;;;;4902330;29;20035;-76
2021/04/21 11:52:50;;;;;;;20.45;14.10;;;20.00;44.20;;;;;;4899826;29;20099;-76
2021/04/21 11:55:31;;;;;;;27.67;13.90;;;19.70;44.50;;;;;;4899814;29;20028;-76
2021/04/21 11:58:19;;;;;;;20.65;13.95;;;19.50;45.30;;;;;;4893246;29;20341;-75
2021/04/21 12:00:50;;;;;;;25.10;14.43;;;19.30;45.40;;;;;;4901810;29;20036;-75
2021/04/21 12:03:27;;;;;;;17.42;13.63;;;19.30;45.80;;;;;;4900965;29;20449;-74
2021/04/21 12:05:56;;;;;;;18.35;13.25;;;19.40;45.80;;;;;;4900621;29;20040;-75
2021/04/21 12:08:25;;;;;;;22.67;13.73;;;19.60;45.30;;;;;;4899967;29;20095;-77
2021/04/21 12:10:51;;;;;;;;;;;19.80;45.00;;;;;;4900417;29;20044;-77
2021/04/21 12:13:26;;;;;;;17.02;13.10;;;20.00;44.00;;;;;;4915635;29;19911;-77
2021/04/21 12:16:09;;;;;;;20.33;13.27;;;20.10;44.70;;;;;;4918727;29;20028;-77
2021/04/21 12:18:43;;;;;;;17.58;12.77;;;20.30;44.20;;;;;;4913684;29;20160;-77
2021/04/21 12:21:17;;;;;;;17.73;12.77;;;20.40;43.50;;;;;;4900327;29;20029;-77
2021/04/21 12:23:59;;;;;;;16.35;12.48;;;20.70;44.10;;;;;;4900022;29;20374;-77
2021/04/21 12:26:30;;;;;;;17.17;12.88;;;20.90;42.70;;;;;;4879705;29;20056;-77
2021/04/21 12:29:08;;;;;;;21.05;12.95;;;21.10;41.70;;;;;;4894679;29;20115;-76
2021/04/21 12:31:35;;;;;;;18.10;12.35;;;21.10;40.20;;;;;;4899641;29;20033;-76
2021/04/21 12:34:02;;;;;;;16.75;12.10;;;21.10;40.90;;;;;;4907642;29;20032;-77
2021/04/21 12:36:31;;;;;;;18.55;12.98;;;21.10;40.70;;;;;;4918342;29;20107;-75
2021/04/21 12:39:09;;;;;;;14.82;12.85;;;21.10;38.80;;;;;;4914107;29;20020;-75
2021/04/21 12:41:37;;;;;;;20.60;13.35;;;21.10;39.20;;;;;;4902997;29;20024;-75
2021/04/21 12:44:27;;;;;;;17.33;12.67;;;21.30;39.30;;;;;;4899059;29;20029;-75
2021/04/21 12:46:55;;;;;;;14.98;12.48;;;21.40;40.40;;;;;;4914283;29;20040;-75
2021/04/21 12:49:41;;;;;;;19.23;13.10;;;21.30;40.50;;;;;;4901125;29;20120;-74
2021/04/21 12:52:11;;;;;;;17.08;13.40;;;21.40;39.90;;;;;;4913235;29;20123;-73
2021/04/21 12:54:45;;;;;;;17.63;13.25;;;21.10;39.00;;;;;;4899702;29;20025;-73
2021/04/21 12:57:13;;;;;;;20.60;13.10;;;20.70;40.10;;;;;;4898571;29;20064;-73
2021/04/21 12:59:40;;;;;;;20.13;13.43;;;20.40;40.80;;;;;;4899623;29;20100;-73
2021/04/21 13:02:06;;;;;;;19.35;13.18;;;20.10;39.70;;;;;;4899634;29;20039;-73
2021/04/21 13:04:40;;;;;;;23.27;12.93;;;19.80;41.00;;;;;;4912752;29;20036;-73
2021/04/21 13:07:21;;;;;;;22.90;14.10;;;19.80;41.50;;;;;;4897773;29;20056;-74